Time;durP1;ratioP1;P1;durP2;ratioP2;P2;SDS_P1;SDS_P2;PMS_P1;PMS_P2;Temp;Humidity;BMP_temperature;BMP_pressure;BME280_temperature;BME280_humidity;BME280_pressure;Samples;Min_cycle;Max_cycle;Signal;HPM_P1;HPM_P2
2021/04/07 00:00:16;;;;;;;5.82;1.05;;;2.40;90.50;;;;;;5008525;28;20037;-81
2021/04/07 00:02:41;;;;;;;4.72;1.00;;;2.40;90.50;;;;;;5004619;28;20090;-81
2021/04/07 00:05:14;;;;;;;9.68;1.42;;;2.40;90.50;;;;;;4996121;28;20420;-81
2021/04/07 00:07:43;;;;;;;8.38;1.33;;;2.40;90.60;;;;;;5008994;28;20113;-81
2021/04/07 00:10:13;;;;;;;7.65;1.55;;;2.40;90.90;;;;;;5029124;28;20100;-81
2021/04/07 00:12:41;;;;;;;8.73;1.50;;;2.40;90.80;;;;;;5021025;28;20105;-82
2021/04/07 00:15:19;;;;;;;7.35;1.10;;;2.40;90.80;;;;;;5010356;28;20030;-81
2021/04/07 00:17:46;;;;;;;2.45;0.93;;;2.40;90.80;;;;;;5031132;28;20030;-82
2021/04/07 00:20:15;;;;;;;7.32;2.05;;;2.30;90.70;;;;;;5011550;28;20384;-81
2021/04/07 00:22:41;;;;;;;4.45;0.90;;;2.40;90.70;;;;;;5002426;28;20048;-81
2021/04/07 00:25:08;;;;;;;7.20;1.13;;;2.40;90.70;;;;;;5013344;28;20032;-81
2021/04/07 00:27:37;;;;;;;4.88;1.10;;;2.30;90.90;;;;;;5013470;28;20409;-82
2021/04/07 00:30:05;;;;;;;4.13;0.82;;;2.30;90.90;;;;;;5031281;28;20026;-81
2021/04/07 00:32:31;;;;;;;5.93;1.33;;;2.30;90.70;;;;;;5013218;28;20028;-80
2021/04/07 00:34:57;;;;;;;9.52;2.10;;;2.30;90.70;;;;;;5012990;28;20132;-82
2021/04/07 00:37:23;;;;;;;8.48;1.90;;;2.20;90.70;;;;;;5013383;28;20164;-81
2021/04/07 00:39:49;;;;;;;6.65;1.73;;;2.20;91.00;;;;;;4997099;28;20116;-81
2021/04/07 00:42:15;;;;;;;7.70;2.33;;;2.20;90.70;;;;;;5013448;28;20052;-80
2021/04/07 00:44:40;;;;;;;7.80;2.22;;;2.10;90.70;;;;;;5017129;28;20044;-81
2021/04/07 00:47:06;;;;;;;9.45;3.13;;;2.10;90.80;;;;;;5003042;28;20022;-81
2021/04/07 00:49:32;;;;;;;9.88;3.10;;;2.00;90.90;;;;;;4996252;28;20465;-81
2021/04/07 00:51:57;;;;;;;7.53;2.88;;;2.00;90.90;;;;;;4997127;28;20048;-82
2021/04/07 00:54:23;;;;;;;5.93;2.47;;;1.90;91.00;;;;;;5016490;28;20061;-81
2021/04/07 00:56:50;;;;;;;9.90;2.42;;;2.00;91.10;;;;;;4977639;28;20058;-80
2021/04/07 00:59:19;;;;;;;11.68;3.25;;;2.00;91.10;;;;;;5023922;28;20076;-82
2021/04/07 01:01:45;;;;;;;8.25;3.13;;;2.00;91.10;;;;;;5013913;28;20022;-81
2021/04/07 01:04:11;;;;;;;17.30;5.80;;;2.00;91.10;;;;;;5013604;28;20033;-82
2021/04/07 01:06:40;;;;;;;12.90;4.82;;;2.00;91.50;;;;;;5039734;28;20497;-81
2021/04/07 01:09:06;;;;;;;11.77;4.28;;;2.00;91.30;;;;;;5037517;28;20029;-80
2021/04/07 01:11:31;;;;;;;9.75;3.95;;;2.00;91.40;;;;;;5034082;28;20367;-81
2021/04/07 01:13:57;;;;;;;9.93;2.97;;;2.00;91.40;;;;;;5025409;28;20469;-81
2021/04/07 01:16:23;;;;;;;12.50;2.90;;;2.00;91.60;;;;;;5036653;28;20029;-81
2021/04/07 01:18:49;;;;;;;8.48;2.72;;;2.00;91.60;;;;;;5043440;28;20025;-81
2021/04/07 01:21:16;;;;;;;11.10;3.20;;;2.10;91.90;;;;;;5036265;28;20044;-82
2021/04/07 01:23:45;;;;;;;10.80;2.83;;;2.10;91.70;;;;;;5054719;28;20080;-83
2021/04/07 01:26:12;;;;;;;10.98;2.83;;;2.10;91.70;;;;;;5058830;28;20017;-81
2021/04/07 01:28:38;;;;;;;9.60;2.78;;;2.10;91.90;;;;;;5043149;28;20041;-81
2021/04/07 01:31:04;;;;;;;11.85;2.90;;;2.10;91.80;;;;;;5020739;28;20052;-81
2021/04/07 01:33:30;;;;;;;10.63;2.92;;;2.10;91.80;;;;;;5025950;28;20018;-86
2021/04/07 01:35:55;;;;;;;11.73;3.38;;;2.10;92.00;;;;;;5018876;28;20050;-81
2021/04/07 01:38:21;;;;;;;12.32;3.63;;;2.10;92.10;;;;;;5005014;28;20033;-81
2021/04/07 01:40:48;;;;;;;14.65;3.95;;;2.00;92.00;;;;;;5010269;28;20059;-80
2021/04/07 01:43:19;;;;;;;11.20;2.13;;;2.00;92.30;;;;;;5007173;28;20021;-81
2021/04/07 01:45:49;;;;;;;9.32;1.90;;;2.00;92.50;;;;;;4996491;28;20022;-82
2021/04/07 01:48:17;;;;;;;8.57;1.88;;;2.00;92.80;;;;;;5022575;28;20037;-82
2021/04/07 01:50:45;;;;;;;10.00;1.90;;;2.00;92.80;;;;;;5033429;28;20037;-80
2021/04/07 01:53:12;;;;;;;7.20;2.20;;;2.00;92.80;;;;;;5016025;28;20021;-81
2021/04/07 01:55:38;;;;;;;7.22;1.85;;;2.00;92.80;;;;;;5017224;28;20034;-81
2021/04/07 01:58:05;;;;;;;10.00;2.63;;;2.00;92.80;;;;;;5006980;28;20094;-80
2021/04/07 02:00:31;;;;;;;7.55;2.05;;;2.00;92.80;;;;;;5012326;28;20032;-81
2021/04/07 02:02:57;;;;;;;8.52;2.22;;;2.10;92.90;;;;;;5015371;28;20470;-80
2021/04/07 02:05:22;;;;;;;7.25;1.77;;;2.10;92.90;;;;;;5012599;28;20041;-81
2021/04/07 02:07:48;;;;;;;9.73;1.90;;;2.10;92.90;;;;;;4996211;28;20049;-81
2021/04/07 02:10:14;;;;;;;8.52;2.33;;;2.10;93.00;;;;;;4994094;28;20112;-81
2021/04/07 02:12:40;;;;;;;11.73;2.67;;;2.10;93.10;;;;;;5015091;28;20052;-83
2021/04/07 02:15:15;;;;;;;8.48;2.10;;;2.10;93.40;;;;;;5033379;28;20482;-81
2021/04/07 02:17:41;;;;;;;12.85;2.67;;;2.10;93.30;;;;;;5015210;28;20552;-82
2021/04/07 02:20:09;;;;;;;6.35;2.22;;;2.10;93.30;;;;;;5032994;28;20494;-80
2021/04/07 02:22:35;;;;;;;7.03;2.08;;;2.10;93.30;;;;;;5015061;28;20056;-82
2021/04/07 02:25:01;;;;;;;7.97;2.25;;;2.10;93.30;;;;;;4999109;28;20037;-81
2021/04/07 02:27:27;;;;;;;8.18;2.10;;;2.10;93.30;;;;;;5010176;28;20053;-81
2021/04/07 02:29:55;;;;;;;9.43;2.35;;;2.10;93.40;;;;;;4998788;28;20069;-81
2021/04/07 02:32:22;;;;;;;9.07;2.42;;;2.10;93.40;;;;;;5015228;28;20034;-81
2021/04/07 02:34:48;;;;;;;6.43;2.78;;;2.10;93.50;;;;;;5001443;28;20046;-81
2021/04/07 02:37:16;;;;;;;7.20;2.20;;;2.10;93.50;;;;;;5003166;28;20030;-82
2021/04/07 02:39:42;;;;;;;5.43;1.65;;;2.10;93.60;;;;;;5001680;28;20025;-81
2021/04/07 02:42:08;;;;;;;5.10;2.35;;;2.10;93.50;;;;;;5032421;28;20411;-81
2021/04/07 02:44:35;;;;;;;5.68;1.80;;;2.20;93.60;;;;;;5029279;28;20022;-82
2021/04/07 02:47:00;;;;;;;5.65;1.58;;;2.20;93.80;;;;;;5019738;28;20100;-81
2021/04/07 02:49:26;;;;;;;6.88;1.75;;;2.20;93.80;;;;;;5024545;28;20057;-81
2021/04/07 02:51:52;;;;;;;4.25;1.27;;;2.20;93.90;;;;;;5008353;28;20344;-81
2021/04/07 02:54:18;;;;;;;4.05;1.33;;;2.20;93.80;;;;;;5001973;28;20028;-81
2021/04/07 02:56:43;;;;;;;5.05;1.23;;;2.20;93.90;;;;;;4989518;28;20036;-82
2021/04/07 02:59:09;;;;;;;4.45;1.33;;;2.20;94.00;;;;;;5013952;28;20034;-82
2021/04/07 03:01:35;;;;;;;4.20;1.35;;;2.20;93.90;;;;;;5012711;28;20049;-81
2021/04/07 03:04:01;;;;;;;6.10;1.88;;;2.10;93.90;;;;;;5012117;28;20108;-82
2021/04/07 03:06:27;;;;;;;6.75;2.53;;;2.10;94.00;;;;;;5012785;28;20052;-81
2021/04/07 03:08:52;;;;;;;4.15;1.98;;;2.10;94.00;;;;;;5030518;28;20048;-81
2021/04/07 03:11:18;;;;;;;6.18;2.85;;;2.20;93.90;;;;;;5031791;28;20072;-82
2021/04/07 03:13:44;;;;;;;8.27;2.97;;;2.20;94.00;;;;;;4979013;28;20379;-81
2021/04/07 03:16:10;;;;;;;8.55;2.85;;;2.20;94.10;;;;;;5022609;28;20459;-81
2021/04/07 03:18:36;;;;;;;8.52;2.42;;;2.10;94.20;;;;;;5013920;28;20171;-81
2021/04/07 03:21:02;;;;;;;6.07;2.25;;;2.10;94.20;;;;;;4997983;28;20037;-81
2021/04/07 03:23:27;;;;;;;6.45;2.28;;;2.10;94.40;;;;;;4999962;28;20030;-81
2021/04/07 03:25:53;;;;;;;5.35;1.98;;;2.10;94.30;;;;;;4997542;28;20394;-81
2021/04/07 03:28:19;;;;;;;10.05;2.38;;;2.00;94.30;;;;;;5014430;28;20100;-82
2021/04/07 03:30:50;;;;;;;7.25;2.42;;;2.00;94.40;;;;;;5027916;28;20433;-81
2021/04/07 03:33:21;;;;;;;7.60;2.00;;;2.00;94.60;;;;;;4985312;28;20463;-81
2021/04/07 03:35:49;;;;;;;5.28;1.75;;;2.00;94.50;;;;;;5012301;28;20104;-81
2021/04/07 03:38:15;;;;;;;6.68;1.75;;;2.00;94.90;;;;;;5007394;28;20053;-82
2021/04/07 03:40:41;;;;;;;7.65;1.85;;;2.00;94.80;;;;;;5013015;28;20026;-81
2021/04/07 03:43:25;;;;;;;5.72;1.73;;;2.00;94.80;;;;;;5010786;28;20033;-82
2021/04/07 03:45:56;;;;;;;4.50;1.48;;;2.00;94.90;;;;;;5020171;28;20087;-82
2021/04/07 03:48:24;;;;;;;6.72;2.00;;;2.00;94.90;;;;;;5013939;28;20087;-82
2021/04/07 03:50:50;;;;;;;7.05;1.48;;;1.90;95.10;;;;;;5027777;28;20370;-81
2021/04/07 03:53:18;;;;;;;7.75;1.75;;;2.00;95.20;;;;;;5044912;28;20035;-81
2021/04/07 03:55:49;;;;;;;7.63;2.55;;;2.00;95.30;;;;;;4996316;28;20076;-82
2021/04/07 03:58:15;;;;;;;5.05;2.22;;;2.00;95.20;;;;;;5008009;28;20037;-81
2021/04/07 04:00:42;;;;;;;11.43;3.20;;;2.00;95.20;;;;;;5011843;28;20030;-82
2021/04/07 04:03:07;;;;;;;8.20;2.08;;;2.00;95.20;;;;;;5029538;28;20405;-81
2021/04/07 04:05:37;;;;;;;3.30;1.38;;;2.00;95.20;;;;;;4994051;28;20026;-81
2021/04/07 04:08:03;;;;;;;4.93;1.30;;;2.00;95.20;;;;;;5003335;28;20195;-81
2021/04/07 04:10:29;;;;;;;7.53;2.38;;;2.00;95.10;;;;;;5031083;28;20116;-81
2021/04/07 04:12:55;;;;;;;4.63;1.33;;;2.00;95.30;;;;;;5023682;28;20113;-82
2021/04/07 04:15:21;;;;;;;13.35;1.88;;;2.10;95.40;;;;;;5024985;28;20025;-81
2021/04/07 04:17:48;;;;;;;9.85;1.67;;;2.00;95.50;;;;;;4999545;28;20444;-82
2021/04/07 04:20:14;;;;;;;9.25;2.08;;;2.00;95.40;;;;;;5020222;28;20121;-82
2021/04/07 04:22:40;;;;;;;6.13;2.28;;;2.00;95.60;;;;;;5028939;28;20026;-81
2021/04/07 04:25:08;;;;;;;9.68;2.15;;;2.00;95.40;;;;;;5014164;28;20038;-81
2021/04/07 04:27:34;;;;;;;6.53;2.17;;;1.90;95.60;;;;;;5018716;28;20029;-81
2021/04/07 04:30:00;;;;;;;7.45;2.10;;;1.90;95.60;;;;;;5026079;28;20099;-83
2021/04/07 04:32:25;;;;;;;7.60;1.83;;;1.90;95.60;;;;;;5013626;28;20014;-82
2021/04/07 04:34:51;;;;;;;4.80;1.42;;;1.90;95.60;;;;;;4983040;28;20502;-82
2021/04/07 04:37:17;;;;;;;5.63;2.10;;;1.90;95.70;;;;;;5000250;28;20466;-81
2021/04/07 04:39:42;;;;;;;5.90;1.90;;;1.90;95.80;;;;;;5000891;28;20037;-81
2021/04/07 04:42:08;;;;;;;8.98;1.80;;;1.90;95.70;;;;;;4997603;28;20022;-82
2021/04/07 04:44:34;;;;;;;8.23;1.67;;;1.90;95.80;;;;;;4981824;28;20463;-82
2021/04/07 04:46:59;;;;;;;5.30;1.40;;;2.00;95.90;;;;;;5021156;28;20033;-82
2021/04/07 04:49:25;;;;;;;6.95;1.77;;;1.90;96.10;;;;;;4987929;28;20066;-82
2021/04/07 04:51:51;;;;;;;4.82;1.85;;;1.90;96.10;;;;;;5033833;28;20040;-82
2021/04/07 04:54:20;;;;;;;9.48;1.67;;;1.90;96.20;;;;;;4990073;28;20022;-82
2021/04/07 04:56:45;;;;;;;8.82;2.72;;;1.90;96.30;;;;;;4984885;28;20256;-83
2021/04/07 04:59:11;;;;;;;7.13;1.50;;;1.80;96.30;;;;;;5018683;28;20120;-83
2021/04/07 05:01:36;;;;;;;5.43;1.95;;;1.90;96.50;;;;;;5021429;28;20508;-83
2021/04/07 05:04:05;;;;;;;8.20;1.77;;;1.90;96.50;;;;;;5009775;28;20175;-83
2021/04/07 05:06:35;;;;;;;5.78;1.77;;;1.90;96.60;;;;;;5032422;28;20038;-83
2021/04/07 05:09:05;;;;;;;6.45;1.80;;;1.90;96.60;;;;;;5005799;28;20042;-82
2021/04/07 05:11:32;;;;;;;7.03;2.20;;;1.80;96.60;;;;;;5021087;28;20036;-84
2021/04/07 05:13:59;;;;;;;5.13;1.98;;;1.90;96.70;;;;;;5047937;28;20034;-86
2021/04/07 05:16:25;;;;;;;6.93;2.03;;;1.90;97.00;;;;;;5026062;28;20025;-84
2021/04/07 05:18:51;;;;;;;5.10;2.20;;;1.80;96.70;;;;;;5049525;28;20116;-84
2021/04/07 05:21:16;;;;;;;7.45;2.50;;;1.90;96.80;;;;;;5025249;28;20029;-84
2021/04/07 05:23:42;;;;;;;6.13;2.30;;;1.90;96.70;;;;;;5000111;28;20029;-87
2021/04/07 05:26:08;;;;;;;7.88;3.47;;;1.90;96.70;;;;;;4994220;28;20034;-83
2021/04/07 05:28:34;;;;;;;6.35;2.83;;;1.90;96.80;;;;;;5009238;28;20034;-85
2021/04/07 05:31:01;;;;;;;5.85;2.83;;;1.90;96.50;;;;;;5028957;28;20026;-82
2021/04/07 05:33:38;;;;;;;5.95;2.60;;;2.00;96.50;;;;;;4979219;28;20117;-84
2021/04/07 05:36:09;;;;;;;5.03;2.50;;;2.00;96.50;;;;;;4982430;28;20080;-84
2021/04/07 05:38:35;;;;;;;;;;;2.00;96.40;;;;;;5033586;28;20029;-83
2021/04/07 05:41:02;;;;;;;4.43;2.10;;;2.10;96.40;;;;;;5018162;28;20361;-82
2021/04/07 05:43:29;;;;;;;4.40;2.00;;;2.00;96.60;;;;;;5015081;28;20180;-83
2021/04/07 05:45:55;;;;;;;5.07;2.13;;;2.10;96.70;;;;;;5028257;28;20477;-83
2021/04/07 05:48:21;;;;;;;4.75;2.33;;;2.10;96.70;;;;;;4984640;28;20535;-84
2021/04/07 05:50:49;;;;;;;4.20;1.70;;;2.00;96.60;;;;;;5014220;28;20381;-85
2021/04/07 05:53:15;;;;;;;2.42;1.67;;;2.10;96.60;;;;;;5014690;28;20024;-84
2021/04/07 05:55:51;;;;;;;5.10;1.80;;;2.00;96.60;;;;;;5003603;28;20026;-83
2021/04/07 05:58:17;;;;;;;3.97;2.10;;;2.00;96.40;;;;;;4996006;28;20022;-83
2021/04/07 06:00:44;;;;;;;6.57;2.13;;;2.00;96.50;;;;;;5013858;28;20052;-83
2021/04/07 06:03:11;;;;;;;5.00;2.35;;;2.00;96.40;;;;;;4999732;28;20030;-83
2021/04/07 06:05:40;;;;;;;5.05;2.50;;;2.00;96.40;;;;;;5011717;28;20105;-83
2021/04/07 06:08:07;;;;;;;6.30;4.22;;;2.00;96.30;;;;;;4991762;28;20051;-83
2021/04/07 06:10:35;;;;;;;7.35;4.57;;;2.00;96.50;;;;;;5031867;28;20100;-85
2021/04/07 06:13:01;;;;;;;6.70;4.40;;;1.90;96.40;;;;;;4996220;28;20141;-85
2021/04/07 06:20:40;;;;;;;7.72;4.18;;;1.90;96.50;;;;;;4987397;28;20046;-81
2021/04/07 06:23:06;;;;;;;7.13;3.70;;;1.90;96.60;;;;;;4979899;28;20038;-82
2021/04/07 06:25:33;;;;;;;6.40;3.60;;;1.90;96.80;;;;;;4985157;28;20030;-82
2021/04/07 06:28:01;;;;;;;6.15;3.33;;;2.00;96.80;;;;;;4943760;28;20058;-82
2021/04/07 06:30:44;;;;;;;6.43;3.40;;;2.00;96.90;;;;;;4977075;28;20023;-80
2021/04/07 06:33:23;;;;;;;5.90;3.22;;;2.10;96.80;;;;;;5007999;28;20425;-80
2021/04/07 06:35:50;;;;;;;6.95;3.65;;;2.10;96.90;;;;;;4975899;28;20109;-81
2021/04/07 06:38:17;;;;;;;6.28;3.47;;;2.10;96.90;;;;;;4968632;28;20442;-81
2021/04/07 06:40:44;;;;;;;8.93;3.60;;;2.20;96.90;;;;;;4949421;28;20137;-81
2021/04/07 06:43:11;;;;;;;8.27;3.47;;;2.20;97.00;;;;;;4962981;28;20044;-80
2021/04/07 06:45:38;;;;;;;5.55;3.28;;;2.20;97.20;;;;;;4963755;28;20112;-82
2021/04/07 06:48:08;;;;;;;4.90;3.22;;;2.30;97.20;;;;;;4981694;28;20526;-82
2021/04/07 06:50:35;;;;;;;5.78;3.97;;;2.30;97.00;;;;;;4976385;28;20018;-81
2021/04/07 06:53:03;;;;;;;7.10;3.78;;;2.30;97.20;;;;;;4976218;28;20030;-82
2021/04/07 06:55:30;;;;;;;5.85;3.80;;;2.30;97.30;;;;;;4990672;28;20464;-82
2021/04/07 06:57:56;;;;;;;6.53;4.00;;;2.40;97.40;;;;;;4966259;28;20408;-83
2021/04/07 07:00:23;;;;;;;6.85;3.45;;;2.40;97.40;;;;;;4962668;28;20030;-82
2021/04/07 07:03:08;;;;;;;8.13;3.03;;;2.40;97.30;;;;;;4969394;28;20039;-82
2021/04/07 07:05:36;;;;;;;6.95;3.40;;;2.50;97.40;;;;;;4972977;28;20093;-81
2021/04/07 07:08:07;;;;;;;6.93;3.20;;;2.50;97.30;;;;;;4994544;28;20058;-82
2021/04/07 07:10:47;;;;;;;9.18;3.95;;;2.60;97.40;;;;;;4962912;28;20022;-81
2021/04/07 07:13:25;;;;;;;6.28;2.72;;;2.60;97.50;;;;;;4974332;28;20485;-81
2021/04/07 07:15:52;;;;;;;9.82;4.00;;;2.70;97.50;;;;;;4989734;28;20080;-82
2021/04/07 07:18:26;;;;;;;8.00;2.85;;;2.80;97.60;;;;;;4978817;28;20476;-81
2021/04/07 07:20:53;;;;;;;8.60;2.85;;;2.80;97.70;;;;;;4993235;28;20054;-81
2021/04/07 07:23:26;;;;;;;7.20;2.95;;;2.90;97.70;;;;;;4976169;28;20018;-82
2021/04/07 07:26:05;;;;;;;9.85;3.83;;;3.00;97.60;;;;;;4985921;28;20037;-82
2021/04/07 07:28:44;;;;;;;8.73;3.20;;;3.00;97.60;;;;;;4957741;28;20033;-81
2021/04/07 07:31:29;;;;;;;7.70;3.05;;;3.10;97.70;;;;;;4977700;28;20396;-82
2021/04/07 07:33:56;;;;;;;7.80;3.00;;;3.10;97.60;;;;;;4962520;28;20074;-83
2021/04/07 07:36:23;;;;;;;9.80;3.83;;;3.20;97.60;;;;;;4988458;28;20033;-82
2021/04/07 07:38:55;;;;;;;5.38;2.72;;;3.20;97.60;;;;;;4971416;28;20026;-82
2021/04/07 07:41:23;;;;;;;7.50;2.80;;;3.30;97.70;;;;;;4965533;28;20033;-82
2021/04/07 07:43:50;;;;;;;8.15;2.88;;;3.30;97.60;;;;;;4979588;28;20072;-82
2021/04/07 07:46:21;;;;;;;8.52;3.00;;;3.40;97.70;;;;;;4988288;28;20109;-82
2021/04/07 07:48:47;;;;;;;10.75;3.45;;;3.40;97.70;;;;;;4976817;28;20029;-80
2021/04/07 07:51:22;;;;;;;8.20;3.13;;;3.50;97.70;;;;;;4956095;28;20077;-80
2021/04/07 07:53:49;;;;;;;10.20;2.92;;;3.50;97.70;;;;;;4970031;28;20022;-80
2021/04/07 07:56:17;;;;;;;9.85;2.60;;;3.50;97.80;;;;;;4959571;28;20026;-80
2021/04/07 07:58:48;;;;;;;9.73;2.78;;;3.60;97.80;;;;;;4962758;28;20030;-81
2021/04/07 08:01:15;;;;;;;9.73;2.53;;;3.60;97.80;;;;;;4961072;28;20022;-80
2021/04/07 08:03:48;;;;;;;10.23;2.70;;;3.70;97.90;;;;;;4963925;28;20026;-81
2021/04/07 08:06:15;;;;;;;4.72;1.45;;;3.80;98.00;;;;;;4960798;28;20114;-81
2021/04/07 08:08:42;;;;;;;7.97;1.58;;;3.80;98.00;;;;;;4956142;28;20507;-82
2021/04/07 08:11:08;;;;;;;10.35;1.73;;;3.90;98.10;;;;;;4989755;28;20503;-81
2021/04/07 08:13:43;;;;;;;7.70;1.38;;;4.00;98.20;;;;;;4981574;28;20026;-81
2021/04/07 08:16:17;;;;;;;10.25;1.70;;;4.00;98.30;;;;;;4999220;28;20030;-81
2021/04/07 08:18:45;;;;;;;9.50;1.48;;;4.10;98.50;;;;;;4962359;28;20385;-82
2021/04/07 08:21:19;;;;;;;11.43;2.38;;;4.20;98.50;;;;;;4978211;28;20042;-81
2021/04/07 08:23:48;;;;;;;14.18;1.90;;;4.30;98.60;;;;;;5002187;28;20535;-81
2021/04/07 08:26:15;;;;;;;26.08;2.33;;;4.40;98.60;;;;;;4979663;28;20022;-82
2021/04/07 08:28:42;;;;;;;13.95;2.28;;;4.40;98.70;;;;;;4969559;28;20042;-82
2021/04/07 08:31:17;;;;;;;21.13;2.92;;;4.50;98.70;;;;;;4958290;28;20019;-82
2021/04/07 08:33:51;;;;;;;19.88;2.95;;;4.60;99.10;;;;;;4969820;28;20137;-82
2021/04/07 08:36:24;;;;;;;17.77;2.35;;;4.60;98.80;;;;;;4976403;28;20026;-81
2021/04/07 08:39:03;;;;;;;17.70;3.17;;;4.60;98.70;;;;;;4969963;28;20049;-82
2021/04/07 08:41:29;;;;;;;26.15;3.10;;;4.70;98.70;;;;;;4984449;28;20164;-82
2021/04/07 08:43:55;;;;;;;15.73;1.92;;;4.70;98.60;;;;;;4965188;28;20046;-82
2021/04/07 08:46:27;;;;;;;12.23;1.65;;;4.70;98.50;;;;;;4960047;28;20530;-82
2021/04/07 08:48:54;;;;;;;19.70;2.65;;;4.70;98.50;;;;;;4988516;28;20094;-82
2021/04/07 08:51:22;;;;;;;11.57;1.75;;;4.80;98.50;;;;;;4980625;28;20029;-82
2021/04/07 08:53:51;;;;;;;8.38;1.90;;;4.80;98.50;;;;;;4977436;28;20038;-81
2021/04/07 08:56:29;;;;;;;17.30;3.15;;;4.80;98.60;;;;;;4981609;28;20113;-81
2021/04/07 08:59:03;;;;;;;22.63;2.92;;;4.80;98.70;;;;;;4981424;28;20061;-82
2021/04/07 09:01:34;;;;;;;30.30;4.00;;;4.90;98.80;;;;;;4981050;28;20030;-82
2021/04/07 09:04:14;;;;;;;27.10;3.75;;;5.00;98.90;;;;;;4997409;28;20037;-82
2021/04/07 09:06:59;;;;;;;28.98;4.32;;;5.10;98.90;;;;;;4998955;28;20423;-83
2021/04/07 09:09:25;;;;;;;32.20;4.38;;;5.20;99.00;;;;;;4998623;28;20031;-82
2021/04/07 09:11:52;;;;;;;25.02;3.33;;;5.20;98.90;;;;;;4998485;28;20102;-80
2021/04/07 09:14:19;;;;;;;30.15;5.13;;;5.20;98.80;;;;;;4998749;28;20479;-80
2021/04/07 09:16:45;;;;;;;24.35;2.67;;;5.30;98.90;;;;;;4981136;28;20132;-80
2021/04/07 09:19:21;;;;;;;26.05;4.25;;;5.30;98.90;;;;;;4981038;28;20105;-80
2021/04/07 09:21:56;;;;;;;27.05;3.53;;;5.30;98.80;;;;;;4996302;28;20049;-80
2021/04/07 09:24:25;;;;;;;25.25;5.05;;;5.30;98.70;;;;;;4995399;28;20472;-80
2021/04/07 09:26:51;;;;;;;32.10;3.90;;;5.40;98.80;;;;;;4978473;28;20057;-81
2021/04/07 09:29:16;;;;;;;28.40;4.22;;;5.40;99.00;;;;;;4977796;28;20120;-80
2021/04/07 09:31:44;;;;;;;29.25;3.50;;;5.50;99.20;;;;;;4977669;28;20039;-80
2021/04/07 09:34:13;;;;;;;41.50;4.65;;;5.60;99.30;;;;;;4978509;28;20027;-80
2021/04/07 09:36:41;;;;;;;28.85;3.80;;;5.80;99.50;;;;;;4977634;28;20383;-80
2021/04/07 09:39:09;;;;;;;25.15;4.22;;;6.00;99.50;;;;;;4980024;28;20185;-80
2021/04/07 09:41:36;;;;;;;28.00;3.50;;;6.10;99.50;;;;;;4975479;28;20382;-80
2021/04/07 09:44:04;;;;;;;23.92;3.60;;;6.20;99.30;;;;;;4976020;28;20113;-80
2021/04/07 09:46:30;;;;;;;29.40;4.10;;;6.30;99.10;;;;;;4976841;28;20451;-80
2021/04/07 09:48:57;;;;;;;24.80;3.80;;;6.30;99.10;;;;;;4959238;28;20050;-80
2021/04/07 09:51:36;;;;;;;27.63;3.40;;;6.40;98.90;;;;;;4953348;28;20476;-80
2021/04/07 09:54:27;;;;;;;23.23;3.72;;;6.40;98.60;;;;;;4973147;28;20165;-83
2021/04/07 09:56:56;;;;;;;21.42;3.38;;;6.40;98.40;;;;;;4977723;28;20045;-83
2021/04/07 09:59:45;;;;;;;22.35;3.30;;;6.40;98.60;;;;;;4973967;28;20035;-83
2021/04/07 10:02:11;;;;;;;14.00;2.47;;;6.40;98.20;;;;;;4970585;28;20064;-83
2021/04/07 10:04:42;;;;;;;22.40;3.95;;;6.30;97.90;;;;;;4959181;28;20058;-83
2021/04/07 10:07:20;;;;;;;14.52;3.97;;;6.30;97.70;;;;;;4940605;28;20027;-83
2021/04/07 10:09:57;;;;;;;11.30;2.60;;;6.20;97.70;;;;;;4981120;28;20065;-81
2021/04/07 10:12:24;;;;;;;16.33;2.28;;;6.10;97.90;;;;;;4975747;28;20018;-83
2021/04/07 10:14:55;;;;;;;14.65;2.10;;;6.10;98.10;;;;;;4994374;28;20415;-83
2021/04/07 10:17:32;;;;;;;16.50;2.33;;;6.20;98.40;;;;;;4994253;28;20483;-82
2021/04/07 10:20:09;;;;;;;28.45;3.83;;;6.30;98.40;;;;;;4987494;28;20069;-82
2021/04/07 10:22:36;;;;;;;22.17;3.20;;;6.30;98.60;;;;;;4964386;28;20042;-83
2021/04/07 10:25:12;;;;;;;22.48;3.35;;;6.40;98.40;;;;;;4976933;28;20054;-83
2021/04/07 10:27:40;;;;;;;21.65;2.92;;;6.40;98.30;;;;;;4963513;28;20120;-83
2021/04/07 10:30:35;;;;;;;20.63;3.08;;;6.40;98.60;;;;;;4941334;28;20027;-83
2021/04/07 10:33:01;;;;;;;22.63;3.42;;;6.40;98.30;;;;;;4981184;23;20027;-90
2021/04/07 10:35:31;;;;;;;20.45;3.15;;;6.50;98.30;;;;;;4980445;28;20034;-89
2021/04/07 10:37:57;;;;;;;16.35;2.72;;;6.50;98.30;;;;;;4996954;28;20029;-90
2021/04/07 10:40:26;;;;;;;22.80;3.17;;;6.60;98.10;;;;;;4997376;28;20042;-91
2021/04/07 10:42:52;;;;;;;24.13;3.85;;;6.60;97.80;;;;;;5015034;28;20488;-91
2021/04/07 10:45:19;;;;;;;14.80;3.50;;;6.50;97.70;;;;;;5015161;28;20026;-93
2021/04/07 10:47:46;;;;;;;22.13;3.60;;;6.50;97.50;;;;;;5014273;28;20053;-89
2021/04/07 10:50:12;;;;;;;17.05;3.22;;;6.50;97.70;;;;;;5017267;28;20121;-91
2021/04/07 10:52:44;;;;;;;24.48;3.35;;;6.50;98.00;;;;;;4997398;28;20034;-87
2021/04/07 10:55:12;;;;;;;19.70;3.00;;;6.40;97.80;;;;;;5000346;28;20041;-89
2021/04/07 10:57:45;;;;;;;19.35;2.90;;;6.40;97.20;;;;;;4996739;28;20028;-90
2021/04/07 11:00:23;;;;;;;14.60;2.65;;;6.30;97.10;;;;;;4982767;28;20040;-90
2021/04/07 11:02:51;;;;;;;22.25;3.25;;;6.20;97.00;;;;;;4997285;28;20113;-91
2021/04/07 11:05:22;;;;;;;16.90;2.47;;;6.20;97.10;;;;;;4996916;28;20061;-94
2021/04/07 11:08:10;;;;;;;14.82;2.70;;;6.10;97.30;;;;;;5015100;28;20076;-92
2021/04/07 11:10:42;;;;;;;24.30;2.80;;;6.10;97.50;;;;;;5014339;28;20033;-92
2021/04/07 11:13:09;;;;;;;15.35;2.63;;;6.10;97.60;;;;;;5014382;28;20200;-91
2021/04/07 11:15:35;;;;;;;17.92;2.70;;;6.20;97.80;;;;;;5014839;28;20025;-91
2021/04/07 11:18:01;;;;;;;22.45;2.67;;;6.20;98.10;;;;;;4997395;28;20588;-92
2021/04/07 11:20:28;;;;;;;17.15;2.75;;;6.30;98.30;;;;;;4996660;28;20030;-92
2021/04/07 11:22:54;;;;;;;25.42;3.15;;;6.50;98.60;;;;;;5014590;28;20026;-93
2021/04/07 11:25:21;;;;;;;23.30;3.85;;;6.60;98.60;;;;;;5014419;28;20026;-93
2021/04/07 11:27:52;;;;;;;22.13;4.03;;;6.70;98.40;;;;;;4997330;28;20037;-91
2021/04/07 11:30:20;;;;;;;24.20;4.40;;;6.70;98.30;;;;;;4997187;28;20036;-90
2021/04/07 11:32:59;;;;;;;16.38;3.03;;;6.80;98.10;;;;;;5013854;28;20037;-91
2021/04/07 11:35:47;;;;;;;14.65;2.63;;;6.70;97.00;;;;;;4996015;28;20045;-93
2021/04/07 11:38:15;;;;;;;15.50;2.50;;;6.60;96.30;;;;;;5016243;28;20485;-92
2021/04/07 11:41:46;;;;;;;12.07;2.35;;;6.40;96.50;;;;;;4982650;28;20018;-92
2021/04/07 11:43:34;;;;;;;12.13;2.25;;;6.40;96.80;;;;;;5000710;28;20061;-90
2021/04/07 11:46:00;;;;;;;19.48;2.97;;;6.40;97.00;;;;;;4997272;28;20033;-91
2021/04/07 11:48:25;;;;;;;14.07;2.60;;;6.40;97.20;;;;;;5014683;28;20030;-92
2021/04/07 11:50:51;;;;;;;18.02;2.88;;;6.40;97.30;;;;;;4997145;28;20121;-90
2021/04/07 11:53:17;;;;;;;19.63;2.72;;;6.40;97.40;;;;;;4981255;28;20114;-90
2021/04/07 11:55:45;;;;;;;12.63;2.67;;;6.50;97.70;;;;;;4998271;28;20026;-92
2021/04/07 11:58:11;;;;;;;19.98;3.10;;;6.60;97.80;;;;;;4980791;28;20079;-92
2021/04/07 12:00:36;;;;;;;13.32;2.88;;;6.60;97.80;;;;;;4981256;28;20121;-89
2021/04/07 12:03:02;;;;;;;22.95;3.20;;;6.70;98.10;;;;;;5015687;28;20029;-91
2021/04/07 12:05:31;;;;;;;17.35;2.67;;;6.80;98.10;;;;;;5016695;28;20058;-91
2021/04/07 12:07:56;;;;;;;18.05;2.50;;;6.90;98.20;;;;;;4997835;28;20557;-95
2021/04/07 12:10:23;;;;;;;16.95;2.65;;;7.00;98.20;;;;;;4981125;28;20066;-90
2021/04/07 12:12:50;;;;;;;20.05;3.50;;;7.00;98.10;;;;;;5015006;28;20025;-89
2021/04/07 12:15:18;;;;;;;17.38;3.03;;;7.10;97.80;;;;;;4996665;28;20018;-89
2021/04/07 12:17:43;;;;;;;17.05;2.20;;;7.00;97.20;;;;;;4980687;28;20458;-90
2021/04/07 12:20:11;;;;;;;20.55;4.15;;;6.90;96.40;;;;;;4996568;28;20104;-89
2021/04/07 12:22:38;;;;;;;17.42;2.80;;;6.90;95.70;;;;;;5011155;28;20026;-90
2021/04/07 12:25:04;;;;;;;12.93;2.05;;;6.80;95.30;;;;;;4995740;28;20033;-89
2021/04/07 12:27:30;;;;;;;13.63;2.50;;;6.70;94.70;;;;;;4995512;28;20026;-89
2021/04/07 12:29:55;;;;;;;12.95;2.67;;;6.60;95.00;;;;;;4994568;28;20044;-88
2021/04/07 12:32:21;;;;;;;15.98;2.03;;;6.50;95.20;;;;;;4963315;28;20030;-88
2021/04/07 12:34:47;;;;;;;13.00;2.13;;;6.50;94.60;;;;;;5013470;28;20065;-88
2021/04/07 12:37:12;;;;;;;12.40;1.88;;;6.40;94.90;;;;;;4995806;28;20079;-89
2021/04/07 12:39:39;;;;;;;13.93;2.55;;;6.30;94.90;;;;;;5001459;28;20136;-89
2021/04/07 12:42:10;;;;;;;15.52;2.47;;;6.20;95.00;;;;;;5013398;28;20077;-90
2021/04/07 12:44:35;;;;;;;10.23;1.97;;;6.20;95.40;;;;;;5013503;28;20013;-89
2021/04/07 12:47:01;;;;;;;12.10;2.17;;;6.20;96.10;;;;;;4995611;28;20296;-89
2021/04/07 12:49:26;;;;;;;17.02;2.20;;;6.20;96.10;;;;;;5013820;28;20065;-87
2021/04/07 12:51:52;;;;;;;13.35;2.40;;;6.20;96.00;;;;;;4980411;28;20120;-87
2021/04/07 12:54:18;;;;;;;9.75;2.35;;;6.30;95.80;;;;;;4996801;28;20407;-87
2021/04/07 12:56:43;;;;;;;14.77;2.45;;;6.30;96.00;;;;;;4996816;28;20022;-88
2021/04/07 12:59:10;;;;;;;12.77;1.92;;;6.40;96.20;;;;;;5000796;28;20061;-88
2021/04/07 13:01:37;;;;;;;15.00;2.70;;;6.60;96.40;;;;;;4991458;28;20038;-88
2021/04/07 13:04:03;;;;;;;10.45;1.98;;;6.70;95.70;;;;;;4987121;28;20084;-88